Fridtjof Nansen — DGLS — position and weather

sailwx.info

Track history (hours):
 
Tides and Currents Weather Stations Pressure Air Temp Water Temp Dewpoint Dewpoint Depression Visibility Wind Speed Wind Dir Waves Ship Positions

Fridtjof Nansen (Germany)

Last reported at 2017-Aug-20 11:28 UTC. Time now 2017-Aug-20 11:31 UTC.
Position N 55°37' E 012°59'.

Length 48 m; draft 2.7 m.

Type: Sailing vessel. MMSI: 211364430.

Date/timePositionNaut miles runAvg speedWind from/ knotsBaromVisibWave heightAir tempDewpointWater temp
2017-Aug-20 11:28N 55°37' E 012°59'0 0.0
2017-Aug-20 09:34N 55°37' E 012°59'0 0.0
2017-Aug-20 09:27N 55°37' E 012°59'0 0.0
2017-Aug-20 08:57N 55°37' E 012°59'0 0.0
2017-Aug-20 08:27N 55°37' E 012°59'0 0.0
2017-Aug-20 07:57N 55°37' E 012°59'0 0.0
2017-Aug-20 07:27N 55°37' E 012°59'0 0.0
2017-Aug-20 06:03N 55°37' E 012°59'0 0.0
2017-Aug-20 04:39N 55°37' E 012°59'0 0.0
2017-Aug-20 04:27N 55°37' E 012°59'0 0.0
2017-Aug-20 03:57N 55°37' E 012°59'0 0.0
2017-Aug-20 03:09N 55°37' E 012°59'0 0.0
2017-Aug-20 02:09N 55°37' E 012°59'0 0.0
2017-Aug-20 01:33N 55°37' E 012°59'0 0.0
2017-Aug-20 01:03N 55°37' E 012°59'0 0.0
2017-Aug-20 00:39N 55°37' E 012°59'0 0.0
2017-Aug-19 21:57N 55°37' E 012°59'0 0.0
2017-Aug-19 21:09N 55°37' E 012°59'0 0.0
2017-Aug-19 20:45N 55°37' E 012°59'0 0.0
2017-Aug-19 20:03N 55°37' E 012°59'0 0.0
2017-Aug-19 19:45N 55°37' E 012°59'0 0.0
2017-Aug-19 19:21N 55°37' E 012°59'0 0.0
2017-Aug-19 18:57N 55°37' E 012°59'0 0.0
2017-Aug-19 18:18N 55°37' E 012°59'0 0.0
2017-Aug-19 17:51N 55°37' E 012°59'0 0.0
2017-Aug-19 16:09N 55°37' E 012°59'0 0.0
2017-Aug-19 15:03N 55°37' E 012°59'0 0.0
2017-Aug-19 14:57N 55°37' E 012°59'0 0.0
2017-Aug-19 13:57N 55°37' E 012°59'0 0.0
2017-Aug-19 13:21N 55°37' E 012°59'0 0.0
2017-Aug-19 12:51N 55°37' E 012°59'0 0.0
2017-Aug-19 12:15N 55°37' E 012°59'0 0.0
2017-Aug-19 11:57N 55°37' E 012°59'0 0.0
2017-Aug-19 11:09N 55°37' E 012°59'0 0.0
2017-Aug-19 10:57N 55°37' E 012°59'0 0.0
2017-Aug-19 08:33N 55°37' E 012°59'0 0.0
2017-Aug-19 08:15N 55°37' E 012°59'0 0.0
2017-Aug-19 07:57N 55°37' E 012°59'0 0.0
2017-Aug-19 07:30N 55°37' E 012°59'0 0.0
2017-Aug-19 07:00N 55°37' E 012°59'0 0.0
2017-Aug-19 05:18N 55°37' E 012°59'0 0.0
2017-Aug-19 03:39N 55°37' E 012°59'0 0.0
2017-Aug-19 03:27N 55°37' E 012°59'0 0.0
2017-Aug-19 02:54N 55°37' E 012°59'0 0.0
2017-Aug-19 02:27N 55°37' E 012°59'0 0.0
2017-Aug-19 01:48N 55°37' E 012°59'0 0.0
2017-Aug-19 01:30N 55°37' E 012°59'0 0.0
2017-Aug-19 00:48N 55°37' E 012°59'0 0.0
2017-Aug-19 00:18N 55°37' E 012°59'0 0.0
2017-Aug-18 23:41N 55°37' E 012°59'0 0.0
2017-Aug-18 23:29N 55°37' E 012°59'0 0.0
2017-Aug-18 22:59N 55°37' E 012°59'0 0.0
2017-Aug-18 22:23N 55°37' E 012°59'0 0.0
2017-Aug-18 21:53N 55°37' E 012°59'0 0.0
2017-Aug-18 20:47N 55°37' E 012°59'0 0.0
2017-Aug-18 20:29N 55°37' E 012°59'0 0.0
2017-Aug-18 19:59N 55°37' E 012°59'0 0.0
2017-Aug-18 19:29N 55°37' E 012°59'0 0.0
2017-Aug-18 18:59N 55°37' E 012°59'0 0.0
2017-Aug-18 18:26N 55°37' E 012°59'0 0.0
2017-Aug-18 17:59N 55°37' E 012°59'0 0.0
2017-Aug-18 17:23N 55°37' E 012°59'0 0.0
2017-Aug-18 17:00N 55°37' E 012°60'1 2.9
2017-Aug-18 16:30N 55°38' E 012°57'0 0.8
2017-Aug-18 16:00N 55°38' E 012°57'0 0.3
2017-Aug-18 15:30N 55°38' E 012°57'1 1.3
2017-Aug-18 15:00N 55°37' E 012°57'3 2.8
2017-Aug-18 14:00N 55°36' E 012°52'2 4.1
2017-Aug-18 13:30N 55°35' E 012°50'2 4.4
2017-Aug-18 13:00N 55°33' E 012°48'2 3.6
2017-Aug-18 12:30N 55°32' E 012°45'2 4.3
2017-Aug-18 12:00N 55°31' E 012°42'3 5.0
2017-Aug-18 11:30N 55°30' E 012°38'2 4.7
2017-Aug-18 11:00N 55°29' E 012°34'2 4.5
2017-Aug-18 10:30N 55°28' E 012°30'2 3.7
2017-Aug-18 09:59N 55°27' E 012°27'1 2.4
2017-Aug-18 09:30N 55°27' E 012°25'1 2.9
2017-Aug-18 09:00N 55°26' E 012°23'2 3.4
2017-Aug-18 08:30N 55°26' E 012°20'2 2.0
2017-Aug-18 07:45N 55°25' E 012°18'0 0.0
2017-Aug-18 07:30N 55°25' E 012°18'0 0.0
2017-Aug-18 07:00N 55°25' E 012°18'0 0.0
2017-Aug-18 06:30N 55°25' E 012°18'0 0.0
2017-Aug-18 06:00N 55°25' E 012°18'0 0.0
2017-Aug-18 05:30N 55°25' E 012°18'0 0.0
2017-Aug-18 04:39N 55°25' E 012°18'0 0.1
2017-Aug-18 04:27N 55°25' E 012°18'0 0.0
2017-Aug-18 04:00N 55°25' E 012°18'0 0.0
2017-Aug-18 03:27N 55°25' E 012°18'0 0.0
2017-Aug-18 03:00N 55°25' E 012°18'0 0.0
2017-Aug-18 02:30N 55°25' E 012°18'0 0.0
2017-Aug-18 01:57N 55°25' E 012°18'0 0.0
2017-Aug-18 01:30N 55°25' E 012°18'0 0.0
2017-Aug-18 00:57N 55°25' E 012°18'0 0.0
2017-Aug-18 00:30N 55°25' E 012°18'0 0.0
2017-Aug-18 00:00N 55°25' E 012°18'0 0.0
2017-Aug-17 23:27N 55°25' E 012°18'0 0.0
2017-Aug-17 22:54N 55°25' E 012°18'0 0.0
2017-Aug-17 22:24N 55°25' E 012°18'0 0.0
2017-Aug-17 21:57N 55°25' E 012°18'0 0.0
2017-Aug-17 21:24N 55°25' E 012°18'0 0.0
2017-Aug-17 20:33N 55°25' E 012°18'0 0.1
2017-Aug-17 20:30N 55°25' E 012°18'0 0.0
2017-Aug-17 20:00N 55°25' E 012°18'0 0.0
2017-Aug-17 19:30N 55°25' E 012°18'0 0.0
2017-Aug-17 18:57N 55°25' E 012°18'0 0.0
2017-Aug-17 14:42N 55°25' E 012°18'0 1.5
2017-Aug-17 14:30N 55°25' E 012°18'2 3.7
2017-Aug-17 14:00N 55°26' E 012°21'2 4.8
2017-Aug-17 13:30N 55°27' E 012°25'3 5.2
2017-Aug-17 13:00N 55°25' E 012°27'3 5.6
2017-Aug-17 12:30N 55°22' E 012°29'3 5.3
2017-Aug-17 12:00N 55°20' E 012°29'3 5.2
2017-Aug-17 11:30N 55°17' E 012°29'1 2.9
2017-Aug-17 11:00N 55°17' E 012°32'3 5.0
2017-Aug-17 10:30N 55°14' E 012°32'2 4.9
2017-Aug-17 10:00N 55°12' E 012°33'5 5.0
2017-Aug-17 08:58N 55°06' E 012°33'3 4.8
2017-Aug-17 08:26N 55°04' E 012°33'3 4.8
2017-Aug-17 07:54N 55°01' E 012°33'1 1.4
2017-Aug-17 07:26N 55°01' E 012°33'0 0.0
2017-Aug-17 07:00N 55°01' E 012°33'0 0.0
2017-Aug-17 06:30N 55°01' E 012°33'0 0.0
2017-Aug-17 06:00N 55°01' E 012°33'0 0.0
2017-Aug-17 05:30N 55°01' E 012°33'0 0.0
2017-Aug-17 05:00N 55°01' E 012°33'0 0.0
2017-Aug-17 04:30N 55°01' E 012°33'0 0.1
2017-Aug-17 04:00N 55°01' E 012°33'0 0.0
2017-Aug-17 03:30N 55°01' E 012°33'19 0.5
2017-Aug-15 16:55N 54°54' E 012°03'1 1.4
2017-Aug-15 16:16N 54°54' E 012°04'2 6.5
2017-Aug-15 16:00N 54°54' E 012°07'3 6.3
2017-Aug-15 15:30N 54°51' E 012°10'2 5.0
2017-Aug-15 15:00N 54°49' E 012°12'2 4.4
2017-Aug-15 14:30N 54°47' E 012°13'3 5.6
2017-Aug-15 14:00N 54°44' E 012°15'3 6.2
2017-Aug-15 13:30N 54°41' E 012°16'3 4.3
2017-Aug-15 12:47N 54°38' E 012°17'1 3.8
2017-Aug-15 12:30N 54°37' E 012°17'2 4.4
2017-Aug-15 12:00N 54°35' E 012°18'3 4.2
2017-Aug-15 11:17N 54°32' E 012°18'1 4.6
2017-Aug-15 11:00N 54°31' E 012°18'10 4.6
2017-Aug-15 08:47N 54°21' E 012°13'1 4.5
2017-Aug-15 08:30N 54°20' E 012°12'3 4.6
2017-Aug-15 07:57N 54°17' E 012°11'2 3.6
2017-Aug-15 07:30N 54°16' E 012°09'0 0.1
2017-Aug-15 05:14N 54°16' E 012°09'0 0.0
2017-Aug-15 02:01N 54°16' E 012°09'0 0.0
2017-Aug-15 01:58N 54°16' E 012°09'0 0.0
2017-Aug-15 01:28N 54°16' E 012°09'0 0.0
2017-Aug-14 22:31N 54°15' E 012°09'0 0.0
2017-Aug-14 22:28N 54°15' E 012°09'0 0.0
2017-Aug-14 21:58N 54°15' E 012°09'0 0.0
2017-Aug-14 19:50N 54°15' E 012°09'1 2.7
2017-Aug-14 19:29N 54°15' E 012°08'3 4.2
2017-Aug-14 18:50N 54°12' E 012°06'1 2.9
2017-Aug-14 18:20N 54°11' E 012°06'4 0.7
2017-Aug-14 12:30N 54°07' E 012°05'0 0.0
2017-Aug-14 09:30N 54°07' E 012°05'0 0.0
2017-Aug-14 07:21N 54°07' E 012°05'0 0.0
2017-Aug-14 06:51N 54°07' E 012°05'0 0.0
2017-Aug-14 04:48N 54°07' E 012°05'0 0.0
2017-Aug-14 02:45N 54°07' E 012°05'0 0.0
2017-Aug-14 02:30N 54°07' E 012°05'0 0.0
2017-Aug-14 00:42N 54°07' E 012°05'0 0.0
2017-Aug-14 00:27N 54°07' E 012°05'0 0.0
2017-Aug-14 00:00N 54°07' E 012°05'0 0.0
2017-Aug-13 23:06N 54°07' E 012°05'0 0.0
2017-Aug-13 22:54N 54°07' E 012°05'0 0.0
2017-Aug-13 21:45N 54°07' E 012°05'0 0.0
2017-Aug-13 21:30N 54°07' E 012°05'0 0.0
2017-Aug-13 20:17N 54°07' E 012°05'0 0.0
2017-Aug-13 14:04N 54°07' E 012°05'0 1.3
2017-Aug-13 13:51N 54°07' E 012°05'1 2.7
2017-Aug-13 13:24N 54°08' E 012°06'1 3.5
2017-Aug-13 13:00N 54°09' E 012°06'2 3.6
2017-Aug-13 12:30N 54°11' E 012°05'2 4.0
2017-Aug-13 12:00N 54°13' E 012°04'1 2.0
2017-Aug-13 11:30N 54°12' E 012°04'1 1.5
2017-Aug-13 10:52N 54°13' E 012°04'1 1.5
2017-Aug-13 10:30N 54°14' E 012°03'2 2.0
2017-Aug-13 09:43N 54°12' E 012°03'1 3.5
2017-Aug-13 09:30N 54°11' E 012°04'2 3.0
2017-Aug-13 08:45N 54°09' E 012°06'1 3.7
2017-Aug-13 08:31N 54°09' E 012°06'2 2.5
2017-Aug-13 07:42N 54°07' E 012°05'0 0.0
2017-Aug-13 06:45N 54°07' E 012°05'0 0.0
2017-Aug-13 06:30N 54°07' E 012°05'0 0.0
2017-Aug-13 05:45N 54°07' E 012°05'0 0.0
2017-Aug-13 05:27N 54°07' E 012°05'0 0.0
2017-Aug-13 05:00N 54°07' E 012°05'0 0.0
2017-Aug-13 04:18N 54°07' E 012°05'0 0.0
2017-Aug-13 00:00N 54°07' E 012°05'0 0.0
2017-Aug-12 23:24N 54°07' E 012°05'0 0.0
2017-Aug-12 23:00N 54°07' E 012°05'0 0.0
2017-Aug-12 22:30N 54°07' E 012°05'2 3.1
2017-Aug-12 22:00N 54°08' E 012°06'4 4.9
2017-Aug-12 21:17N 54°12' E 012°05'1 0.7
2017-Aug-12 19:10N 54°12' E 012°03'1 1.9
2017-Aug-12 18:40N 54°11' E 012°04'5 1.2
2017-Aug-12 14:43N 54°07' E 012°05'0 0.3
2017-Aug-12 14:29N 54°07' E 012°05'2 3.0
2017-Aug-12 13:55N 54°08' E 012°06'1 2.6
2017-Aug-12 13:30N 54°09' E 012°06'3 2.2
2017-Aug-12 12:02N 54°12' E 012°03'0 2.3
2017-Aug-12 12:00N 54°12' E 012°03'1 1.5
2017-Aug-12 11:20N 54°13' E 012°03'1 1.4
2017-Aug-12 10:56N 54°13' E 012°03'0 0.4
2017-Aug-12 09:53N 54°12' E 012°02'2 2.9
2017-Aug-12 09:08N 54°11' E 012°05'0 3.2
2017-Aug-12 08:59N 54°11' E 012°06'4 1.3
2017-Aug-12 05:46N 54°07' E 012°05'0 0.0
2017-Aug-12 05:28N 54°07' E 012°05'0 0.0
2017-Aug-12 04:01N 54°07' E 012°05'0 0.0
2017-Aug-12 03:58N 54°07' E 012°05'0 0.0
2017-Aug-12 03:28N 54°07' E 012°05'0 0.0
2017-Aug-11 22:16N 54°07' E 012°05'0 0.0
2017-Aug-11 21:58N 54°07' E 012°05'0 0.0
2017-Aug-11 21:19N 54°07' E 012°05'0 0.0
2017-Aug-11 20:55N 54°07' E 012°05'1 2.1
2017-Aug-11 20:29N 54°07' E 012°06'2 4.4
2017-Aug-11 20:00N 54°10' E 012°06'3 3.9
2017-Aug-11 19:21N 54°12' E 012°03'1 1.6
2017-Aug-11 19:00N 54°12' E 012°04'2 2.5
2017-Aug-11 18:01N 54°10' E 012°06'0 2.4
2017-Aug-11 17:57N 54°09' E 012°06'3 1.9
2017-Aug-11 16:30N 54°07' E 012°05'0 0.0
2017-Aug-11 16:00N 54°07' E 012°05'0 0.0
2017-Aug-11 14:24N 54°07' E 012°05'2 2.8
2017-Aug-11 13:30N 54°09' E 012°06'2 4.2
2017-Aug-11 13:00N 54°11' E 012°05'2 3.9
2017-Aug-11 12:30N 54°13' E 012°03'1 1.8
2017-Aug-11 12:00N 54°13' E 012°05'6 1.6
2017-Aug-11 08:03N 54°07' E 012°05'0 0.2
2017-Aug-11 08:00N 54°07' E 012°05'0 0.0
2017-Aug-11 07:30N 54°07' E 012°05'0 0.0
2017-Aug-11 07:00N 54°07' E 012°05'0 0.0
2017-Aug-11 06:30N 54°07' E 012°05'0 0.0
2017-Aug-11 05:51N 54°07' E 012°05'0 0.0
2017-Aug-10 16:51N 54°07' E 012°05'0 0.0
2017-Aug-10 16:27N 54°07' E 012°05'0 0.0
2017-Aug-10 14:59N 54°07' E 012°05'1 1.2
2017-Aug-10 14:31N 54°07' E 012°06'2 4.4
2017-Aug-10 14:00N 54°09' E 012°06'2 3.3
2017-Aug-10 13:31N 54°11' E 012°05'2 3.7
2017-Aug-10 13:00N 54°12' E 012°03'2 3.4
2017-Aug-10 12:30N 54°14' E 012°02'1 2.0
2017-Aug-10 11:56N 54°13' E 012°01'1 2.6
2017-Aug-10 11:29N 54°14' E 012°01'  
Track history (hours):
 
Tides and Currents Weather Stations Pressure Air Temp Water Temp Dewpoint Dewpoint Depression Visibility Wind Speed Wind Dir Waves Ship Positions

Fridtjof Nansen (Germany)

Last reported at 2017-Aug-20 11:28 UTC. Time now 2017-Aug-20 11:31 UTC.
Position N 55°37' E 012°59'.

Length 48 m; draft 2.7 m.

Type: Sailing vessel. MMSI: 211364430.

Date/timePositionNaut miles runAvg speedWind from/ knotsBaromVisibWave heightAir tempDewpointWater temp
2017-Aug-20 11:28N 55°37' E 012°59'0 0.0
2017-Aug-20 09:34N 55°37' E 012°59'0 0.0
2017-Aug-20 09:27N 55°37' E 012°59'0 0.0
2017-Aug-20 08:57N 55°37' E 012°59'0 0.0
2017-Aug-20 08:27N 55°37' E 012°59'0 0.0
2017-Aug-20 07:57N 55°37' E 012°59'0 0.0
2017-Aug-20 07:27N 55°37' E 012°59'0 0.0
2017-Aug-20 06:03N 55°37' E 012°59'0 0.0
2017-Aug-20 04:39N 55°37' E 012°59'0 0.0
2017-Aug-20 04:27N 55°37' E 012°59'0 0.0
2017-Aug-20 03:57N 55°37' E 012°59'0 0.0
2017-Aug-20 03:09N 55°37' E 012°59'0 0.0
2017-Aug-20 02:09N 55°37' E 012°59'0 0.0
2017-Aug-20 01:33N 55°37' E 012°59'0 0.0
2017-Aug-20 01:03N 55°37' E 012°59'0 0.0
2017-Aug-20 00:39N 55°37' E 012°59'0 0.0
2017-Aug-19 21:57N 55°37' E 012°59'0 0.0
2017-Aug-19 21:09N 55°37' E 012°59'0 0.0
2017-Aug-19 20:45N 55°37' E 012°59'0 0.0
2017-Aug-19 20:03N 55°37' E 012°59'0 0.0
2017-Aug-19 19:45N 55°37' E 012°59'0 0.0
2017-Aug-19 19:21N 55°37' E 012°59'0 0.0
2017-Aug-19 18:57N 55°37' E 012°59'0 0.0
2017-Aug-19 18:18N 55°37' E 012°59'0 0.0
2017-Aug-19 17:51N 55°37' E 012°59'0 0.0
2017-Aug-19 16:09N 55°37' E 012°59'0 0.0
2017-Aug-19 15:03N 55°37' E 012°59'0 0.0
2017-Aug-19 14:57N 55°37' E 012°59'0 0.0
2017-Aug-19 13:57N 55°37' E 012°59'0 0.0
2017-Aug-19 13:21N 55°37' E 012°59'0 0.0
2017-Aug-19 12:51N 55°37' E 012°59'0 0.0
2017-Aug-19 12:15N 55°37' E 012°59'0 0.0
2017-Aug-19 11:57N 55°37' E 012°59'0 0.0
2017-Aug-19 11:09N 55°37' E 012°59'0 0.0
2017-Aug-19 10:57N 55°37' E 012°59'0 0.0
2017-Aug-19 08:33N 55°37' E 012°59'0 0.0
2017-Aug-19 08:15N 55°37' E 012°59'0 0.0
2017-Aug-19 07:57N 55°37' E 012°59'0 0.0
2017-Aug-19 07:30N 55°37' E 012°59'0 0.0
2017-Aug-19 07:00N 55°37' E 012°59'0 0.0
2017-Aug-19 05:18N 55°37' E 012°59'0 0.0
2017-Aug-19 03:39N 55°37' E 012°59'0 0.0
2017-Aug-19 03:27N 55°37' E 012°59'0 0.0
2017-Aug-19 02:54N 55°37' E 012°59'0 0.0
2017-Aug-19 02:27N 55°37' E 012°59'0 0.0
2017-Aug-19 01:48N 55°37' E 012°59'0 0.0
2017-Aug-19 01:30N 55°37' E 012°59'0 0.0
2017-Aug-19 00:48N 55°37' E 012°59'0 0.0
2017-Aug-19 00:18N 55°37' E 012°59'0 0.0
2017-Aug-18 23:41N 55°37' E 012°59'0 0.0
2017-Aug-18 23:29N 55°37' E 012°59'0 0.0
2017-Aug-18 22:59N 55°37' E 012°59'0 0.0
2017-Aug-18 22:23N 55°37' E 012°59'0 0.0
2017-Aug-18 21:53N 55°37' E 012°59'0 0.0
2017-Aug-18 20:47N 55°37' E 012°59'0 0.0
2017-Aug-18 20:29N 55°37' E 012°59'0 0.0
2017-Aug-18 19:59N 55°37' E 012°59'0 0.0
2017-Aug-18 19:29N 55°37' E 012°59'0 0.0
2017-Aug-18 18:59N 55°37' E 012°59'0 0.0
2017-Aug-18 18:26N 55°37' E 012°59'0 0.0
2017-Aug-18 17:59N 55°37' E 012°59'0 0.0
2017-Aug-18 17:23N 55°37' E 012°59'0 0.0
2017-Aug-18 17:00N 55°37' E 012°60'1 2.9
2017-Aug-18 16:30N 55°38' E 012°57'0 0.8
2017-Aug-18 16:00N 55°38' E 012°57'0 0.3
2017-Aug-18 15:30N 55°38' E 012°57'1 1.3
2017-Aug-18 15:00N 55°37' E 012°57'3 2.8
2017-Aug-18 14:00N 55°36' E 012°52'2 4.1
2017-Aug-18 13:30N 55°35' E 012°50'2 4.4
2017-Aug-18 13:00N 55°33' E 012°48'2 3.6
2017-Aug-18 12:30N 55°32' E 012°45'2 4.3
2017-Aug-18 12:00N 55°31' E 012°42'3 5.0
2017-Aug-18 11:30N 55°30' E 012°38'2 4.7
2017-Aug-18 11:00N 55°29' E 012°34'2 4.5
2017-Aug-18 10:30N 55°28' E 012°30'2 3.7
2017-Aug-18 09:59N 55°27' E 012°27'1 2.4
2017-Aug-18 09:30N 55°27' E 012°25'1 2.9
2017-Aug-18 09:00N 55°26' E 012°23'2 3.4
2017-Aug-18 08:30N 55°26' E 012°20'2 2.0
2017-Aug-18 07:45N 55°25' E 012°18'0 0.0
2017-Aug-18 07:30N 55°25' E 012°18'0 0.0
2017-Aug-18 07:00N 55°25' E 012°18'0 0.0
2017-Aug-18 06:30N 55°25' E 012°18'0 0.0
2017-Aug-18 06:00N 55°25' E 012°18'0 0.0
2017-Aug-18 05:30N 55°25' E 012°18'0 0.0
2017-Aug-18 04:39N 55°25' E 012°18'0 0.1
2017-Aug-18 04:27N 55°25' E 012°18'0 0.0
2017-Aug-18 04:00N 55°25' E 012°18'0 0.0
2017-Aug-18 03:27N 55°25' E 012°18'0 0.0
2017-Aug-18 03:00N 55°25' E 012°18'0 0.0
2017-Aug-18 02:30N 55°25' E 012°18'0 0.0
2017-Aug-18 01:57N 55°25' E 012°18'0 0.0
2017-Aug-18 01:30N 55°25' E 012°18'0 0.0
2017-Aug-18 00:57N 55°25' E 012°18'0 0.0
2017-Aug-18 00:30N 55°25' E 012°18'0 0.0
2017-Aug-18 00:00N 55°25' E 012°18'0 0.0
2017-Aug-17 23:27N 55°25' E 012°18'0 0.0
2017-Aug-17 22:54N 55°25' E 012°18'0 0.0
2017-Aug-17 22:24N 55°25' E 012°18'0 0.0
2017-Aug-17 21:57N 55°25' E 012°18'0 0.0
2017-Aug-17 21:24N 55°25' E 012°18'0 0.0
2017-Aug-17 20:33N 55°25' E 012°18'0 0.1
2017-Aug-17 20:30N 55°25' E 012°18'0 0.0
2017-Aug-17 20:00N 55°25' E 012°18'0 0.0
2017-Aug-17 19:30N 55°25' E 012°18'0 0.0
2017-Aug-17 18:57N 55°25' E 012°18'0 0.0
2017-Aug-17 14:42N 55°25' E 012°18'0 1.5
2017-Aug-17 14:30N 55°25' E 012°18'2 3.7
2017-Aug-17 14:00N 55°26' E 012°21'2 4.8
2017-Aug-17 13:30N 55°27' E 012°25'3 5.2
2017-Aug-17 13:00N 55°25' E 012°27'3 5.6
2017-Aug-17 12:30N 55°22' E 012°29'3 5.3
2017-Aug-17 12:00N 55°20' E 012°29'3 5.2
2017-Aug-17 11:30N 55°17' E 012°29'1 2.9
2017-Aug-17 11:00N 55°17' E 012°32'3 5.0
2017-Aug-17 10:30N 55°14' E 012°32'2 4.9
2017-Aug-17 10:00N 55°12' E 012°33'5 5.0
2017-Aug-17 08:58N 55°06' E 012°33'3 4.8
2017-Aug-17 08:26N 55°04' E 012°33'3 4.8
2017-Aug-17 07:54N 55°01' E 012°33'1 1.4
2017-Aug-17 07:26N 55°01' E 012°33'0 0.0
2017-Aug-17 07:00N 55°01' E 012°33'0 0.0
2017-Aug-17 06:30N 55°01' E 012°33'0 0.0
2017-Aug-17 06:00N 55°01' E 012°33'0 0.0
2017-Aug-17 05:30N 55°01' E 012°33'0 0.0
2017-Aug-17 05:00N 55°01' E 012°33'0 0.0
2017-Aug-17 04:30N 55°01' E 012°33'0 0.1
2017-Aug-17 04:00N 55°01' E 012°33'0 0.0
2017-Aug-17 03:30N 55°01' E 012°33'19 0.5
2017-Aug-15 16:55N 54°54' E 012°03'1 1.4
2017-Aug-15 16:16N 54°54' E 012°04'2 6.5
2017-Aug-15 16:00N 54°54' E 012°07'3 6.3
2017-Aug-15 15:30N 54°51' E 012°10'2 5.0
2017-Aug-15 15:00N 54°49' E 012°12'2 4.4
2017-Aug-15 14:30N 54°47' E 012°13'3 5.6
2017-Aug-15 14:00N 54°44' E 012°15'3 6.2
2017-Aug-15 13:30N 54°41' E 012°16'3 4.3
2017-Aug-15 12:47N 54°38' E 012°17'1 3.8
2017-Aug-15 12:30N 54°37' E 012°17'2 4.4
2017-Aug-15 12:00N 54°35' E 012°18'3 4.2
2017-Aug-15 11:17N 54°32' E 012°18'1 4.6
2017-Aug-15 11:00N 54°31' E 012°18'10 4.6
2017-Aug-15 08:47N 54°21' E 012°13'1 4.5
2017-Aug-15 08:30N 54°20' E 012°12'3 4.6
2017-Aug-15 07:57N 54°17' E 012°11'2 3.6
2017-Aug-15 07:30N 54°16' E 012°09'0 0.1
2017-Aug-15 05:14N 54°16' E 012°09'0 0.0
2017-Aug-15 02:01N 54°16' E 012°09'0 0.0
2017-Aug-15 01:58N 54°16' E 012°09'0 0.0
2017-Aug-15 01:28N 54°16' E 012°09'0 0.0
2017-Aug-14 22:31N 54°15' E 012°09'0 0.0
2017-Aug-14 22:28N 54°15' E 012°09'0 0.0
2017-Aug-14 21:58N 54°15' E 012°09'0 0.0
2017-Aug-14 19:50N 54°15' E 012°09'1 2.7
2017-Aug-14 19:29N 54°15' E 012°08'3 4.2
2017-Aug-14 18:50N 54°12' E 012°06'1 2.9
2017-Aug-14 18:20N 54°11' E 012°06'4 0.7
2017-Aug-14 12:30N 54°07' E 012°05'0 0.0
2017-Aug-14 09:30N 54°07' E 012°05'0 0.0
2017-Aug-14 07:21N 54°07' E 012°05'0 0.0
2017-Aug-14 06:51N 54°07' E 012°05'0 0.0
2017-Aug-14 04:48N 54°07' E 012°05'0 0.0
2017-Aug-14 02:45N 54°07' E 012°05'0 0.0
2017-Aug-14 02:30N 54°07' E 012°05'0 0.0
2017-Aug-14 00:42N 54°07' E 012°05'0 0.0
2017-Aug-14 00:27N 54°07' E 012°05'0 0.0
2017-Aug-14 00:00N 54°07' E 012°05'0 0.0
2017-Aug-13 23:06N 54°07' E 012°05'0 0.0
2017-Aug-13 22:54N 54°07' E 012°05'0 0.0
2017-Aug-13 21:45N 54°07' E 012°05'0 0.0
2017-Aug-13 21:30N 54°07' E 012°05'0 0.0
2017-Aug-13 20:17N 54°07' E 012°05'0 0.0
2017-Aug-13 14:04N 54°07' E 012°05'0 1.3
2017-Aug-13 13:51N 54°07' E 012°05'1 2.7
2017-Aug-13 13:24N 54°08' E 012°06'1 3.5
2017-Aug-13 13:00N 54°09' E 012°06'2 3.6
2017-Aug-13 12:30N 54°11' E 012°05'2 4.0
2017-Aug-13 12:00N 54°13' E 012°04'1 2.0
2017-Aug-13 11:30N 54°12' E 012°04'1 1.5
2017-Aug-13 10:52N 54°13' E 012°04'1 1.5
2017-Aug-13 10:30N 54°14' E 012°03'2 2.0
2017-Aug-13 09:43N 54°12' E 012°03'1 3.5
2017-Aug-13 09:30N 54°11' E 012°04'2 3.0
2017-Aug-13 08:45N 54°09' E 012°06'1 3.7
2017-Aug-13 08:31N 54°09' E 012°06'2 2.5
2017-Aug-13 07:42N 54°07' E 012°05'0 0.0
2017-Aug-13 06:45N 54°07' E 012°05'0 0.0
2017-Aug-13 06:30N 54°07' E 012°05'0 0.0
2017-Aug-13 05:45N 54°07' E 012°05'0 0.0
2017-Aug-13 05:27N 54°07' E 012°05'0 0.0
2017-Aug-13 05:00N 54°07' E 012°05'0 0.0
2017-Aug-13 04:18N 54°07' E 012°05'0 0.0
2017-Aug-13 00:00N 54°07' E 012°05'0 0.0
2017-Aug-12 23:24N 54°07' E 012°05'0 0.0
2017-Aug-12 23:00N 54°07' E 012°05'0 0.0
2017-Aug-12 22:30N 54°07' E 012°05'2 3.1
2017-Aug-12 22:00N 54°08' E 012°06'4 4.9
2017-Aug-12 21:17N 54°12' E 012°05'1 0.7
2017-Aug-12 19:10N 54°12' E 012°03'1 1.9
2017-Aug-12 18:40N 54°11' E 012°04'5 1.2
2017-Aug-12 14:43N 54°07' E 012°05'0 0.3
2017-Aug-12 14:29N 54°07' E 012°05'2 3.0
2017-Aug-12 13:55N 54°08' E 012°06'1 2.6
2017-Aug-12 13:30N 54°09' E 012°06'3 2.2
2017-Aug-12 12:02N 54°12' E 012°03'0 2.3
2017-Aug-12 12:00N 54°12' E 012°03'1 1.5
2017-Aug-12 11:20N 54°13' E 012°03'1 1.4
2017-Aug-12 10:56N 54°13' E 012°03'0 0.4
2017-Aug-12 09:53N 54°12' E 012°02'2 2.9
2017-Aug-12 09:08N 54°11' E 012°05'0 3.2
2017-Aug-12 08:59N 54°11' E 012°06'4 1.3
2017-Aug-12 05:46N 54°07' E 012°05'0 0.0
2017-Aug-12 05:28N 54°07' E 012°05'0 0.0
2017-Aug-12 04:01N 54°07' E 012°05'0 0.0
2017-Aug-12 03:58N 54°07' E 012°05'0 0.0
2017-Aug-12 03:28N 54°07' E 012°05'0 0.0
2017-Aug-11 22:16N 54°07' E 012°05'0 0.0
2017-Aug-11 21:58N 54°07' E 012°05'0 0.0
2017-Aug-11 21:19N 54°07' E 012°05'0 0.0
2017-Aug-11 20:55N 54°07' E 012°05'1 2.1
2017-Aug-11 20:29N 54°07' E 012°06'2 4.4
2017-Aug-11 20:00N 54°10' E 012°06'3 3.9
2017-Aug-11 19:21N 54°12' E 012°03'1 1.6
2017-Aug-11 19:00N 54°12' E 012°04'2 2.5
2017-Aug-11 18:01N 54°10' E 012°06'0 2.4
2017-Aug-11 17:57N 54°09' E 012°06'3 1.9
2017-Aug-11 16:30N 54°07' E 012°05'0 0.0
2017-Aug-11 16:00N 54°07' E 012°05'0 0.0
2017-Aug-11 14:24N 54°07' E 012°05'2 2.8
2017-Aug-11 13:30N 54°09' E 012°06'2 4.2
2017-Aug-11 13:00N 54°11' E 012°05'2 3.9
2017-Aug-11 12:30N 54°13' E 012°03'1 1.8
2017-Aug-11 12:00N 54°13' E 012°05'6 1.6
2017-Aug-11 08:03N 54°07' E 012°05'0 0.2
2017-Aug-11 08:00N 54°07' E 012°05'0 0.0
2017-Aug-11 07:30N 54°07' E 012°05'0 0.0
2017-Aug-11 07:00N 54°07' E 012°05'0 0.0
2017-Aug-11 06:30N 54°07' E 012°05'0 0.0
2017-Aug-11 05:51N 54°07' E 012°05'0 0.0
2017-Aug-10 16:51N 54°07' E 012°05'0 0.0
2017-Aug-10 16:27N 54°07' E 012°05'0 0.0
2017-Aug-10 14:59N 54°07' E 012°05'1 1.2
2017-Aug-10 14:31N 54°07' E 012°06'2 4.4
2017-Aug-10 14:00N 54°09' E 012°06'2 3.3
2017-Aug-10 13:31N 54°11' E 012°05'2 3.7
2017-Aug-10 13:00N 54°12' E 012°03'2 3.4
2017-Aug-10 12:30N 54°14' E 012°02'1 2.0
2017-Aug-10 11:56N 54°13' E 012°01'1 2.6
2017-Aug-10 11:29N 54°14' E 012°01'  

Dump ship's entire track history